sensor_id;sensor_type;location;lat;lon;timestamp;pressure;altitude;pressure_sealevel;temperature;humidity
10060;BME280;5069;49.306;8.636;2022-12-28T00:00:22;101374.50;;;3.24;100.00
10060;BME280;5069;49.306;8.636;2022-12-28T00:03:26;101361.47;;;3.24;100.00
10060;BME280;5069;49.306;8.636;2022-12-28T00:06:28;101362.38;;;3.24;100.00
10060;BME280;5069;49.306;8.636;2022-12-28T00:09:29;101364.16;;;3.30;100.00
10060;BME280;5069;49.306;8.636;2022-12-28T00:12:31;101365.88;;;3.29;100.00
10060;BME280;5069;49.306;8.636;2022-12-28T00:15:35;101361.53;;;3.28;100.00
10060;BME280;5069;49.306;8.636;2022-12-28T00:18:37;101361.56;;;3.33;100.00
10060;BME280;5069;49.306;8.636;2022-12-28T00:21:39;101354.66;;;3.35;100.00
10060;BME280;5069;49.306;8.636;2022-12-28T00:24:41;101352.06;;;3.38;100.00
10060;BME280;5069;49.306;8.636;2022-12-28T00:27:42;101346.88;;;3.40;100.00
10060;BME280;5069;49.306;8.636;2022-12-28T00:30:44;101349.53;;;3.44;100.00
10060;BME280;5069;49.306;8.636;2022-12-28T00:33:46;101334.03;;;3.56;100.00
10060;BME280;5069;49.306;8.636;2022-12-28T00:36:51;101334.09;;;3.65;100.00
10060;BME280;5069;49.306;8.636;2022-12-28T00:40:12;101325.31;;;3.54;100.00
10060;BME280;5069;49.306;8.636;2022-12-28T00:43:21;101316.69;;;3.61;100.00
10060;BME280;5069;49.306;8.636;2022-12-28T00:46:23;101312.41;;;3.68;100.00
10060;BME280;5069;49.306;8.636;2022-12-28T00:49:24;101311.53;;;3.64;100.00
10060;BME280;5069;49.306;8.636;2022-12-28T00:52:26;101304.56;;;3.66;100.00
10060;BME280;5069;49.306;8.636;2022-12-28T00:55:28;101299.31;;;3.65;100.00
10060;BME280;5069;49.306;8.636;2022-12-28T00:58:29;101295.00;;;3.67;100.00
10060;BME280;5069;49.306;8.636;2022-12-28T01:01:30;101294.19;;;3.72;100.00
10060;BME280;5069;49.306;8.636;2022-12-28T01:04:32;101297.66;;;3.71;100.00
10060;BME280;5069;49.306;8.636;2022-12-28T01:07:33;101291.53;;;3.68;100.00
10060;BME280;5069;49.306;8.636;2022-12-28T01:10:37;101290.72;;;3.73;100.00
10060;BME280;5069;49.306;8.636;2022-12-28T01:13:39;101286.38;;;3.72;100.00
10060;BME280;5069;49.306;8.636;2022-12-28T01:16:40;101273.28;;;3.66;100.00
10060;BME280;5069;49.306;8.636;2022-12-28T01:19:42;101261.03;;;3.59;100.00
10060;BME280;5069;49.306;8.636;2022-12-28T01:22:50;101262.84;;;3.66;100.00
10060;BME280;5069;49.306;8.636;2022-12-28T01:25:51;101263.72;;;3.67;100.00
10060;BME280;5069;49.306;8.636;2022-12-28T01:28:53;101257.66;;;3.69;100.00
10060;BME280;5069;49.306;8.636;2022-12-28T01:31:55;101258.59;;;3.79;100.00
10060;BME280;5069;49.306;8.636;2022-12-28T01:34:56;101248.19;;;3.81;100.00
10060;BME280;5069;49.306;8.636;2022-12-28T01:37:57;101232.59;;;3.87;100.00
10060;BME280;5069;49.306;8.636;2022-12-28T01:40:59;101231.75;;;3.94;100.00
10060;BME280;5069;49.306;8.636;2022-12-28T01:47:06;101236.91;;;3.85;100.00
10060;BME280;5069;49.306;8.636;2022-12-28T01:50:13;101230.88;;;3.87;100.00
10060;BME280;5069;49.306;8.636;2022-12-28T01:53:17;101225.66;;;3.87;100.00
10060;BME280;5069;49.306;8.636;2022-12-28T01:56:21;101231.69;;;3.88;100.00
10060;BME280;5069;49.306;8.636;2022-12-28T01:59:28;101209.13;;;3.90;100.00
10060;BME280;5069;49.306;8.636;2022-12-28T02:02:32;101203.91;;;3.87;100.00
10060;BME280;5069;49.306;8.636;2022-12-28T02:05:37;101196.94;;;3.89;100.00
10060;BME280;5069;49.306;8.636;2022-12-28T02:09:01;101190.84;;;3.85;100.00
10060;BME280;5069;49.306;8.636;2022-12-28T02:12:06;101173.44;;;3.81;100.00
10060;BME280;5069;49.306;8.636;2022-12-28T02:15:08;101174.28;;;3.79;100.00
10060;BME280;5069;49.306;8.636;2022-12-28T02:18:11;101167.31;;;3.78;100.00
10060;BME280;5069;49.306;8.636;2022-12-28T02:28:43;101185.69;;;3.99;100.00
10060;BME280;5069;49.306;8.636;2022-12-28T02:31:59;101161.41;;;4.07;100.00
10060;BME280;5069;49.306;8.636;2022-12-28T02:35:34;101169.22;;;4.06;100.00
10060;BME280;5069;49.306;8.636;2022-12-28T02:38:50;101150.97;;;4.09;100.00
10060;BME280;5069;49.306;8.636;2022-12-28T02:41:55;101151.84;;;4.08;100.00
10060;BME280;5069;49.306;8.636;2022-12-28T02:44:57;101138.81;;;4.09;100.00
10060;BME280;5069;49.306;8.636;2022-12-28T02:48:17;101136.22;;;4.14;100.00
10060;BME280;5069;49.306;8.636;2022-12-28T02:51:51;101131.03;;;4.29;100.00
10060;BME280;5069;49.306;8.636;2022-12-28T02:55:13;101127.56;;;4.33;100.00
10060;BME280;5069;49.306;8.636;2022-12-28T02:59:09;101133.66;;;4.29;100.00
10060;BME280;5069;49.306;8.636;2022-12-28T03:05:28;101121.50;;;4.33;100.00
10060;BME280;5069;49.306;8.636;2022-12-28T03:09:16;101128.41;;;4.28;100.00
10060;BME280;5069;49.306;8.636;2022-12-28T03:12:34;101127.59;;;4.30;100.00
10060;BME280;5069;49.306;8.636;2022-12-28T03:15:38;101124.09;;;4.28;100.00
10060;BME280;5069;49.306;8.636;2022-12-28T03:18:42;101118.88;;;4.25;100.00
10060;BME280;5069;49.306;8.636;2022-12-28T03:22:07;101111.03;;;4.21;100.00
10060;BME280;5069;49.306;8.636;2022-12-28T03:25:31;101108.41;;;4.22;100.00
10060;BME280;5069;49.306;8.636;2022-12-28T03:29:01;101098.84;;;4.27;100.00
10060;BME280;5069;49.306;8.636;2022-12-28T03:32:25;101110.19;;;4.26;100.00
10060;BME280;5069;49.306;8.636;2022-12-28T03:35:34;101103.19;;;4.28;100.00
10060;BME280;5069;49.306;8.636;2022-12-28T03:38:53;101097.97;;;4.28;100.00
10060;BME280;5069;49.306;8.636;2022-12-28T03:45:53;101088.44;;;4.35;100.00
10060;BME280;5069;49.306;8.636;2022-12-28T03:48:58;101087.56;;;4.39;100.00
10060;BME280;5069;49.306;8.636;2022-12-28T03:52:00;101088.47;;;4.41;100.00
10060;BME280;5069;49.306;8.636;2022-12-28T03:55:03;101077.16;;;4.43;100.00
10060;BME280;5069;49.306;8.636;2022-12-28T03:58:05;101073.69;;;4.58;100.00
10060;BME280;5069;49.306;8.636;2022-12-28T04:01:07;101059.75;;;4.45;100.00
10060;BME280;5069;49.306;8.636;2022-12-28T04:04:11;101061.50;;;4.43;100.00
10060;BME280;5069;49.306;8.636;2022-12-28T04:07:12;101047.56;;;4.38;100.00
10060;BME280;5069;49.306;8.636;2022-12-28T04:10:14;101055.38;;;4.34;100.00
10060;BME280;5069;49.306;8.636;2022-12-28T04:13:16;101052.75;;;4.34;100.00
10060;BME280;5069;49.306;8.636;2022-12-28T04:16:27;101046.69;;;4.35;100.00
10060;BME280;5069;49.306;8.636;2022-12-28T04:19:28;101045.81;;;4.33;100.00
10060;BME280;5069;49.306;8.636;2022-12-28T04:22:30;101042.34;;;4.37;100.00
10060;BME280;5069;49.306;8.636;2022-12-28T04:25:32;101044.94;;;4.44;100.00
10060;BME280;5069;49.306;8.636;2022-12-28T04:28:35;101036.28;;;4.48;100.00
10060;BME280;5069;49.306;8.636;2022-12-28T04:31:55;101044.94;;;4.44;100.00
10060;BME280;5069;49.306;8.636;2022-12-28T04:34:57;101033.66;;;4.42;100.00
10060;BME280;5069;49.306;8.636;2022-12-28T04:37:58;101029.28;;;4.41;100.00
10060;BME280;5069;49.306;8.636;2022-12-28T04:41:00;101025.81;;;4.45;100.00
10060;BME280;5069;49.306;8.636;2022-12-28T04:44:02;101021.47;;;4.47;100.00
10060;BME280;5069;49.306;8.636;2022-12-28T04:47:04;101025.84;;;4.59;100.00
10060;BME280;5069;49.306;8.636;2022-12-28T04:50:05;101013.63;;;4.46;100.00
10060;BME280;5069;49.306;8.636;2022-12-28T04:53:06;101021.47;;;4.41;100.00
10060;BME280;5069;49.306;8.636;2022-12-28T04:56:09;101011.00;;;4.44;100.00
10060;BME280;5069;49.306;8.636;2022-12-28T04:59:11;101020.59;;;4.47;100.00
10060;BME280;5069;49.306;8.636;2022-12-28T05:02:12;101022.34;;;4.42;100.00
10060;BME280;5069;49.306;8.636;2022-12-28T05:05:14;101018.88;;;4.49;100.00
10060;BME280;5069;49.306;8.636;2022-12-28T05:08:15;101024.06;;;4.50;100.00
10060;BME280;5069;49.306;8.636;2022-12-28T05:11:22;101021.47;;;4.47;100.00
10060;BME280;5069;49.306;8.636;2022-12-28T05:14:24;101011.91;;;4.49;100.00
10060;BME280;5069;49.306;8.636;2022-12-28T05:17:25;101026.69;;;4.53;100.00
10060;BME280;5069;49.306;8.636;2022-12-28T05:20:27;101023.22;;;4.57;100.00
10060;BME280;5069;49.306;8.636;2022-12-28T05:23:29;101026.72;;;4.61;100.00
10060;BME280;5069;49.306;8.636;2022-12-28T05:26:31;101014.50;;;4.74;100.00
10060;BME280;5069;49.306;8.636;2022-12-28T05:29:32;101011.06;;;4.78;100.00
10060;BME280;5069;49.306;8.636;2022-12-28T05:32:33;101005.78;;;4.67;100.00
10060;BME280;5069;49.306;8.636;2022-12-28T05:35:35;100992.75;;;4.63;100.00
10060;BME280;5069;49.306;8.636;2022-12-28T05:38:37;100992.75;;;4.66;100.00
10060;BME280;5069;49.306;8.636;2022-12-28T05:41:38;100992.75;;;4.67;100.00
10060;BME280;5069;49.306;8.636;2022-12-28T05:44:40;100992.75;;;4.69;100.00
10060;BME280;5069;49.306;8.636;2022-12-28T05:47:41;100987.53;;;4.78;100.00
10060;BME280;5069;49.306;8.636;2022-12-28T05:50:43;100985.78;;;4.75;100.00
10060;BME280;5069;49.306;8.636;2022-12-28T05:53:45;100976.19;;;4.73;100.00
10060;BME280;5069;49.306;8.636;2022-12-28T05:56:49;100977.09;;;4.72;100.00
10060;BME280;5069;49.306;8.636;2022-12-28T05:59:51;100974.47;;;4.72;100.00
10060;BME280;5069;49.306;8.636;2022-12-28T06:02:54;100965.75;;;4.73;100.00
10060;BME280;5069;49.306;8.636;2022-12-28T06:05:55;100966.66;;;4.70;100.00
10060;BME280;5069;49.306;8.636;2022-12-28T06:08:57;100969.25;;;4.70;100.00
10060;BME280;5069;49.306;8.636;2022-12-28T06:11:58;100964.91;;;4.72;100.00
10060;BME280;5069;49.306;8.636;2022-12-28T06:14:59;100967.50;;;4.77;100.00
10060;BME280;5069;49.306;8.636;2022-12-28T06:18:01;100971.84;;;4.81;100.00
10060;BME280;5069;49.306;8.636;2022-12-28T06:21:05;100972.72;;;4.83;100.00
10060;BME280;5069;49.306;8.636;2022-12-28T06:24:08;100962.28;;;4.81;100.00
10060;BME280;5069;49.306;8.636;2022-12-28T06:27:09;100959.66;;;4.83;100.00
10060;BME280;5069;49.306;8.636;2022-12-28T06:30:11;100966.63;;;4.88;100.00
10060;BME280;5069;49.306;8.636;2022-12-28T06:33:13;100956.19;;;4.87;100.00
10060;BME280;5069;49.306;8.636;2022-12-28T06:36:16;100959.66;;;4.89;100.00
10060;BME280;5069;49.306;8.636;2022-12-28T06:39:21;100950.06;;;4.85;100.00
10060;BME280;5069;49.306;8.636;2022-12-28T06:42:22;100947.47;;;4.80;100.00
10060;BME280;5069;49.306;8.636;2022-12-28T06:45:23;100956.19;;;4.81;100.00
10060;BME280;5069;49.306;8.636;2022-12-28T06:48:25;100944.00;;;4.83;100.00
10060;BME280;5069;49.306;8.636;2022-12-28T06:51:34;100940.53;;;4.78;100.00
10060;BME280;5069;49.306;8.636;2022-12-28T06:54:40;100935.28;;;4.76;100.00
10060;BME280;5069;49.306;8.636;2022-12-28T06:57:42;100930.94;;;4.77;100.00
10060;BME280;5069;49.306;8.636;2022-12-28T07:00:43;100931.81;;;4.77;100.00
10060;BME280;5069;49.306;8.636;2022-12-28T07:03:46;100934.41;;;4.79;100.00
10060;BME280;5069;49.306;8.636;2022-12-28T07:06:48;100942.28;;;4.77;100.00
10060;BME280;5069;49.306;8.636;2022-12-28T07:09:49;100941.38;;;4.80;100.00
10060;BME280;5069;49.306;8.636;2022-12-28T07:12:50;100932.69;;;4.81;100.00
10060;BME280;5069;49.306;8.636;2022-12-28T07:15:52;100937.00;;;4.86;100.00
10060;BME280;5069;49.306;8.636;2022-12-28T07:18:54;100930.03;;;4.93;100.00
10060;BME280;5069;49.306;8.636;2022-12-28T07:21:55;100930.94;;;4.89;100.00
10060;BME280;5069;49.306;8.636;2022-12-28T07:24:57;100928.31;;;4.83;100.00
10060;BME280;5069;49.306;8.636;2022-12-28T07:27:58;100930.06;;;4.79;100.00
10060;BME280;5069;49.306;8.636;2022-12-28T07:31:04;100926.56;;;4.79;100.00
10060;BME280;5069;49.306;8.636;2022-12-28T07:34:06;100933.53;;;4.80;100.00
10060;BME280;5069;49.306;8.636;2022-12-28T07:37:07;100931.78;;;4.86;100.00
10060;BME280;5069;49.306;8.636;2022-12-28T07:40:09;100930.94;;;4.89;100.00
10060;BME280;5069;49.306;8.636;2022-12-28T07:43:11;100923.06;;;4.93;100.00
10060;BME280;5069;49.306;8.636;2022-12-28T07:46:15;100918.69;;;4.97;100.00
10060;BME280;5069;49.306;8.636;2022-12-28T07:49:17;100915.19;;;5.03;100.00
10060;BME280;5069;49.306;8.636;2022-12-28T07:52:18;100903.88;;;5.02;100.00
10060;BME280;5069;49.306;8.636;2022-12-28T07:55:20;100902.16;;;5.04;100.00
10060;BME280;5069;49.306;8.636;2022-12-28T07:58:21;100901.25;;;5.11;100.00
10060;BME280;5069;49.306;8.636;2022-12-28T08:01:25;100892.53;;;5.18;100.00
10060;BME280;5069;49.306;8.636;2022-12-28T08:04:27;100891.63;;;5.21;100.00
10060;BME280;5069;49.306;8.636;2022-12-28T08:07:34;100895.09;;;5.24;100.00
10060;BME280;5069;49.306;8.636;2022-12-28T08:10:35;100896.00;;;5.23;100.00
10060;BME280;5069;49.306;8.636;2022-12-28T08:13:40;100894.22;;;5.25;100.00
10060;BME280;5069;49.306;8.636;2022-12-28T08:16:42;100889.00;;;5.28;100.00
10060;BME280;5069;49.306;8.636;2022-12-28T08:19:44;100892.41;;;5.46;100.00
10060;BME280;5069;49.306;8.636;2022-12-28T08:22:46;100885.34;;;5.60;100.00
10060;BME280;5069;49.306;8.636;2022-12-28T08:25:47;100888.72;;;5.80;100.00
10060;BME280;5069;49.306;8.636;2022-12-28T08:28:51;100888.69;;;5.86;100.00
10060;BME280;5069;49.306;8.636;2022-12-28T08:31:53;100885.19;;;5.90;100.00
10060;BME280;5069;49.306;8.636;2022-12-28T08:34:55;100877.34;;;5.90;100.00
10060;BME280;5069;49.306;8.636;2022-12-28T08:37:56;100876.47;;;5.91;100.00
10060;BME280;5069;49.306;8.636;2022-12-28T08:40:59;100872.06;;;5.93;100.00
10060;BME280;5069;49.306;8.636;2022-12-28T08:44:01;100872.03;;;6.01;100.00
10060;BME280;5069;49.306;8.636;2022-12-28T08:47:03;100870.25;;;6.09;100.00
10060;BME280;5069;49.306;8.636;2022-12-28T08:50:05;100866.66;;;6.19;100.00
10060;BME280;5069;49.306;8.636;2022-12-28T08:53:06;100860.50;;;6.25;100.00
10060;BME280;5069;49.306;8.636;2022-12-28T08:56:14;100856.97;;;6.29;100.00
10060;BME280;5069;49.306;8.636;2022-12-28T08:59:17;100862.19;;;6.32;100.00
10060;BME280;5069;49.306;8.636;2022-12-28T09:02:18;100857.78;;;6.37;100.00
10060;BME280;5069;49.306;8.636;2022-12-28T09:05:20;100865.59;;;6.43;100.00
10060;BME280;5069;49.306;8.636;2022-12-28T09:08:22;100865.53;;;6.47;100.00
10060;BME280;5069;49.306;8.636;2022-12-28T09:11:24;100868.09;;;6.50;100.00
10060;BME280;5069;49.306;8.636;2022-12-28T09:14:25;100870.72;;;6.55;100.00
10060;BME280;5069;49.306;8.636;2022-12-28T09:17:28;100863.69;;;6.58;100.00
10060;BME280;5069;49.306;8.636;2022-12-28T09:20:29;100872.34;;;6.65;100.00
10060;BME280;5069;49.306;8.636;2022-12-28T09:23:31;100861.81;;;6.68;100.00
10060;BME280;5069;49.306;8.636;2022-12-28T09:26:37;100868.69;;;6.78;100.00
10060;BME280;5069;49.306;8.636;2022-12-28T09:29:38;100863.41;;;6.84;100.00
10060;BME280;5069;49.306;8.636;2022-12-28T09:32:40;100867.69;;;6.90;100.00
10060;BME280;5069;49.306;8.636;2022-12-28T09:35:41;100868.50;;;6.96;100.00
10060;BME280;5069;49.306;8.636;2022-12-28T09:38:42;100872.81;;;7.03;100.00
10060;BME280;5069;49.306;8.636;2022-12-28T09:41:50;100870.09;;;7.10;100.00
10060;BME280;5069;49.306;8.636;2022-12-28T09:44:57;100866.47;;;7.23;100.00
10060;BME280;5069;49.306;8.636;2022-12-28T09:48:06;100855.06;;;7.24;100.00
10060;BME280;5069;49.306;8.636;2022-12-28T09:51:10;100861.16;;;7.26;100.00
10060;BME280;5069;49.306;8.636;2022-12-28T09:54:12;100865.44;;;7.33;100.00
10060;BME280;5069;49.306;8.636;2022-12-28T09:57:15;100866.34;;;7.32;100.00
10060;BME280;5069;49.306;8.636;2022-12-28T10:00:24;100858.41;;;7.36;100.00
10060;BME280;5069;49.306;8.636;2022-12-28T10:03:38;100855.63;;;7.47;100.00
10060;BME280;5069;49.306;8.636;2022-12-28T10:06:41;100860.72;;;7.59;100.00
10060;BME280;5069;49.306;8.636;2022-12-28T10:09:44;100847.59;;;7.58;100.00
10060;BME280;5069;49.306;8.636;2022-12-28T10:12:48;100842.22;;;7.68;100.00
10060;BME280;5069;49.306;8.636;2022-12-28T10:15:51;100842.16;;;7.74;100.00
10060;BME280;5069;49.306;8.636;2022-12-28T10:18:53;100840.19;;;7.87;100.00
10060;BME280;5069;49.306;8.636;2022-12-28T10:22:00;100824.25;;;7.99;100.00
10060;BME280;5069;49.306;8.636;2022-12-28T10:25:13;100823.88;;;8.20;100.00
10060;BME280;5069;49.306;8.636;2022-12-28T10:28:19;100818.25;;;8.43;97.33
10060;BME280;5069;49.306;8.636;2022-12-28T10:31:34;100813.44;;;8.66;95.55
10060;BME280;5069;49.306;8.636;2022-12-28T10:34:37;100813.31;;;8.74;94.30
10060;BME280;5069;49.306;8.636;2022-12-28T10:37:59;100799.03;;;8.86;91.41
10060;BME280;5069;49.306;8.636;2022-12-28T10:41:09;100795.63;;;8.82;90.87
10060;BME280;5069;49.306;8.636;2022-12-28T10:44:32;100796.81;;;8.66;90.93
10060;BME280;5069;49.306;8.636;2022-12-28T10:47:43;100791.72;;;8.58;93.36
10060;BME280;5069;49.306;8.636;2022-12-28T10:50:50;100779.34;;;8.63;93.14
10060;BME280;5069;49.306;8.636;2022-12-28T10:53:55;100778.47;;;8.64;94.59
10060;BME280;5069;49.306;8.636;2022-12-28T10:56:56;100772.88;;;8.80;94.22
10060;BME280;5069;49.306;8.636;2022-12-28T11:00:19;100765.03;;;8.78;94.36
10060;BME280;5069;49.306;8.636;2022-12-28T11:03:27;100763.97;;;8.87;94.19
10060;BME280;5069;49.306;8.636;2022-12-28T11:06:34;100749.72;;;8.98;92.97
10060;BME280;5069;49.306;8.636;2022-12-28T11:09:35;100744.13;;;9.12;90.85
10060;BME280;5069;49.306;8.636;2022-12-28T11:12:41;100746.09;;;9.04;91.33
10060;BME280;5069;49.306;8.636;2022-12-28T11:15:43;100740.56;;;9.16;91.93
10060;BME280;5069;49.306;8.636;2022-12-28T11:18:45;100730.03;;;9.16;91.24
10060;BME280;5069;49.306;8.636;2022-12-28T11:21:47;100734.47;;;9.14;91.16
10060;BME280;5069;49.306;8.636;2022-12-28T11:24:49;100720.91;;;9.32;89.76
10060;BME280;5069;49.306;8.636;2022-12-28T11:27:51;100717.44;;;9.29;89.57
10060;BME280;5069;49.306;8.636;2022-12-28T11:30:53;100712.03;;;9.36;90.08
10060;BME280;5069;49.306;8.636;2022-12-28T11:34:00;100710.09;;;9.44;89.23
10060;BME280;5069;49.306;8.636;2022-12-28T11:37:11;100706.03;;;9.67;87.97
10060;BME280;5069;49.306;8.636;2022-12-28T11:43:49;100693.72;;;10.01;83.34
10060;BME280;5069;49.306;8.636;2022-12-28T11:59:46;100675.34;;;9.98;84.15
10060;BME280;5069;49.306;8.636;2022-12-28T12:02:55;100666.50;;;10.02;84.31
10060;BME280;5069;49.306;8.636;2022-12-28T12:05:57;100664.34;;;10.16;83.59
10060;BME280;5069;49.306;8.636;2022-12-28T12:08:59;100667.56;;;10.27;82.02
10060;BME280;5069;49.306;8.636;2022-12-28T12:12:11;100663.88;;;10.33;81.67
10060;BME280;5069;49.306;8.636;2022-12-28T12:15:30;100651.56;;;10.33;81.74
10060;BME280;5069;49.306;8.636;2022-12-28T12:18:45;100647.75;;;10.44;80.59
10060;BME280;5069;49.306;8.636;2022-12-28T12:21:58;100640.63;;;10.76;79.32
10060;BME280;5069;49.306;8.636;2022-12-28T12:25:19;100618.44;;;11.11;78.24
10060;BME280;5069;49.306;8.636;2022-12-28T12:28:35;100620.00;;;11.17;75.97
10060;BME280;5069;49.306;8.636;2022-12-28T12:31:49;100611.19;;;11.18;74.03
10060;BME280;5069;49.306;8.636;2022-12-28T12:35:01;100614.41;;;11.28;74.77
10060;BME280;5069;49.306;8.636;2022-12-28T12:38:33;100606.13;;;11.38;73.74
10060;BME280;5069;49.306;8.636;2022-12-28T12:48:48;100596.53;;;11.36;72.46
10060;BME280;5069;49.306;8.636;2022-12-28T12:52:03;100586.16;;;11.30;73.07
10060;BME280;5069;49.306;8.636;2022-12-28T12:55:19;100589.00;;;11.24;73.46
10060;BME280;5069;49.306;8.636;2022-12-28T12:58:32;100590.72;;;11.25;73.62
10060;BME280;5069;49.306;8.636;2022-12-28T13:01:51;100576.50;;;11.29;72.98
10060;BME280;5069;49.306;8.636;2022-12-28T13:04:55;100563.69;;;11.18;73.23
10060;BME280;5069;49.306;8.636;2022-12-28T13:07:57;100568.50;;;11.05;73.89
10060;BME280;5069;49.306;8.636;2022-12-28T13:11:00;100557.50;;;10.93;75.34
10060;BME280;5069;49.306;8.636;2022-12-28T13:14:02;100556.06;;;10.83;76.83
10060;BME280;5069;49.306;8.636;2022-12-28T13:17:09;100558.84;;;10.78;76.08
10060;BME280;5069;49.306;8.636;2022-12-28T13:20:19;100547.19;;;10.85;75.19
10060;BME280;5069;49.306;8.636;2022-12-28T13:23:22;100550.31;;;10.70;76.80
10060;BME280;5069;49.306;8.636;2022-12-28T13:26:27;100544.47;;;10.60;77.38
10060;BME280;5069;49.306;8.636;2022-12-28T13:29:37;100541.47;;;10.71;75.77
10060;BME280;5069;49.306;8.636;2022-12-28T13:32:48;100544.28;;;10.66;76.31
10060;BME280;5069;49.306;8.636;2022-12-28T13:39:12;100528.75;;;10.57;77.10
10060;BME280;5069;49.306;8.636;2022-12-28T13:42:24;100520.81;;;10.59;76.83
10060;BME280;5069;49.306;8.636;2022-12-28T13:45:28;100526.19;;;10.54;77.88
10060;BME280;5069;49.306;8.636;2022-12-28T13:48:30;100517.66;;;10.48;78.66
10060;BME280;5069;49.306;8.636;2022-12-28T13:51:35;100512.94;;;10.57;77.81
10060;BME280;5069;49.306;8.636;2022-12-28T13:54:38;100516.63;;;10.52;78.50
10060;BME280;5069;49.306;8.636;2022-12-28T13:57:43;100519.34;;;10.49;79.17
10060;BME280;5069;49.306;8.636;2022-12-28T14:00:50;100518.47;;;10.48;79.85
10060;BME280;5069;49.306;8.636;2022-12-28T14:03:58;100515.09;;;10.45;80.33
10060;BME280;5069;49.306;8.636;2022-12-28T14:07:26;100504.84;;;10.35;80.65
10060;BME280;5069;49.306;8.636;2022-12-28T14:10:28;100501.84;;;10.48;80.98
10060;BME280;5069;49.306;8.636;2022-12-28T14:13:31;100497.53;;;10.44;80.92
10060;BME280;5069;49.306;8.636;2022-12-28T14:16:34;100496.84;;;10.39;80.52
10060;BME280;5069;49.306;8.636;2022-12-28T14:19:36;100487.31;;;10.34;80.54
10060;BME280;5069;49.306;8.636;2022-12-28T14:22:39;100485.56;;;10.33;81.27
10060;BME280;5069;49.306;8.636;2022-12-28T14:25:41;100486.28;;;10.39;82.10
10060;BME280;5069;49.306;8.636;2022-12-28T14:28:48;100479.09;;;10.44;81.16
10060;BME280;5069;49.306;8.636;2022-12-28T14:31:56;100475.47;;;10.48;80.21
10060;BME280;5069;49.306;8.636;2022-12-28T14:34:59;100470.09;;;10.51;78.59
10060;BME280;5069;49.306;8.636;2022-12-28T14:38:00;100467.56;;;10.48;78.82
10060;BME280;5069;49.306;8.636;2022-12-28T14:41:03;100475.47;;;10.48;79.00
10060;BME280;5069;49.306;8.636;2022-12-28T14:44:14;100466.81;;;10.43;79.55
10060;BME280;5069;49.306;8.636;2022-12-28T14:47:44;100455.38;;;10.44;79.72
10060;BME280;5069;49.306;8.636;2022-12-28T14:51:40;100442.19;;;10.44;79.86
10060;BME280;5069;49.306;8.636;2022-12-28T14:55:18;100440.09;;;10.55;78.50
10060;BME280;5069;49.306;8.636;2022-12-28T14:58:24;100440.50;;;10.69;76.40
10060;BME280;5069;49.306;8.636;2022-12-28T15:01:45;100438.06;;;10.63;76.76
10060;BME280;5069;49.306;8.636;2022-12-28T15:04:46;100437.00;;;10.68;76.45
10060;BME280;5069;49.306;8.636;2022-12-28T15:07:50;100433.47;;;10.69;76.40
10060;BME280;5069;49.306;8.636;2022-12-28T15:10:56;100432.63;;;10.67;76.20
10060;BME280;5069;49.306;8.636;2022-12-28T15:13:58;100440.47;;;10.70;76.50
10060;BME280;5069;49.306;8.636;2022-12-28T15:16:59;100425.78;;;10.62;76.43
10060;BME280;5069;49.306;8.636;2022-12-28T15:20:01;100440.00;;;10.58;77.44
10060;BME280;5069;49.306;8.636;2022-12-28T15:23:02;100434.81;;;10.55;77.67
10060;BME280;5069;49.306;8.636;2022-12-28T15:26:08;100428.03;;;10.48;78.12
10060;BME280;5069;49.306;8.636;2022-12-28T15:29:10;100428.13;;;10.45;77.81
10060;BME280;5069;49.306;8.636;2022-12-28T15:32:19;100428.13;;;10.45;77.64
10060;BME280;5069;49.306;8.636;2022-12-28T15:35:20;100424.88;;;10.37;78.41
10060;BME280;5069;49.306;8.636;2022-12-28T15:38:22;100422.44;;;10.30;78.87
10060;BME280;5069;49.306;8.636;2022-12-28T15:41:23;100411.16;;;10.25;78.61
10060;BME280;5069;49.306;8.636;2022-12-28T15:44:44;100408.84;;;10.16;79.47
10060;BME280;5069;49.306;8.636;2022-12-28T15:47:51;100401.75;;;10.18;79.30
10060;BME280;5069;49.306;8.636;2022-12-28T15:50:53;100402.88;;;10.10;79.79
10060;BME280;5069;49.306;8.636;2022-12-28T15:53:54;100397.56;;;10.11;79.72
10060;BME280;5069;49.306;8.636;2022-12-28T15:56:56;100395.66;;;10.16;78.91
10060;BME280;5069;49.306;8.636;2022-12-28T15:59:58;100395.75;;;10.13;79.39
10060;BME280;5069;49.306;8.636;2022-12-28T16:02:59;100394.78;;;10.16;79.32
10060;BME280;5069;49.306;8.636;2022-12-28T16:06:01;100399.13;;;10.18;78.65
10060;BME280;5069;49.306;8.636;2022-12-28T16:09:05;100392.28;;;10.11;79.25
10060;BME280;5069;49.306;8.636;2022-12-28T16:12:06;100392.09;;;10.19;78.22
10060;BME280;5069;49.306;8.636;2022-12-28T16:15:08;100379.94;;;10.13;78.89
10060;BME280;5069;49.306;8.636;2022-12-28T16:18:09;100383.56;;;10.09;78.60
10060;BME280;5069;49.306;8.636;2022-12-28T16:21:13;100375.75;;;10.08;78.79
10060;BME280;5069;49.306;8.636;2022-12-28T16:24:17;100372.84;;;10.15;77.63
10060;BME280;5069;49.306;8.636;2022-12-28T16:27:20;100380.78;;;10.14;78.77
10060;BME280;5069;49.306;8.636;2022-12-28T16:30:21;100380.94;;;10.09;79.14
10060;BME280;5069;49.306;8.636;2022-12-28T16:33:24;100376.56;;;10.08;78.67
10060;BME280;5069;49.306;8.636;2022-12-28T16:36:26;100374.75;;;10.10;78.85
10060;BME280;5069;49.306;8.636;2022-12-28T16:39:28;100366.69;;;10.16;78.43
10060;BME280;5069;49.306;8.636;2022-12-28T16:42:29;100372.03;;;10.13;78.92
10060;BME280;5069;49.306;8.636;2022-12-28T16:45:36;100365.31;;;10.03;79.06
10060;BME280;5069;49.306;8.636;2022-12-28T16:48:39;100367.88;;;10.06;78.48
10060;BME280;5069;49.306;8.636;2022-12-28T16:51:43;100371.41;;;10.05;78.84
10060;BME280;5069;49.306;8.636;2022-12-28T16:54:45;100362.81;;;10.00;79.57
10060;BME280;5069;49.306;8.636;2022-12-28T16:57:47;100373.53;;;9.94;80.03
10060;BME280;5069;49.306;8.636;2022-12-28T17:00:48;100370.94;;;9.92;80.74
10060;BME280;5069;49.306;8.636;2022-12-28T17:03:50;100360.53;;;9.88;80.95
10060;BME280;5069;49.306;8.636;2022-12-28T17:06:52;100359.91;;;9.80;81.63